Terminal Aerodrome Forecast
Issued by NWS

Home | Current Version | Previous Version | Text Only | Print | Product List | Glossary On
Versions: 1 2 3 4 5 6 7 8 9 10 11 12 13 14 15 16 17 18
000
FTUS41 KALY 212346
TAFPSF
TAF
KPSF 212346Z 2200/2224 31004KT P6SM BKN035
     FM220500 00000KT P6SM VCSH BKN025
     FM220900 00000KT 6SM -RASNPL BR OVC015
     FM221400 10004KT 4SM -RA BR OVC010
     FM221700 10005KT 2SM -RA BR OVC007=

USA.gov is the U.S. government's official web portal to all federal, state and local government web resources and services.